sensor_id;sensor_type;location;lat;lon;timestamp;P1;durP1;ratioP1;P2;durP2;ratioP2
21624;SDS011;10974;51.034;3.744;2023-03-01T04:17:53;11.57;;;9.73;;
21624;SDS011;10974;51.034;3.744;2023-03-01T04:20:21;12.07;;;9.67;;
21624;SDS011;10974;51.034;3.744;2023-03-01T04:22:50;11.80;;;9.60;;
21624;SDS011;10974;51.034;3.744;2023-03-01T04:25:16;12.20;;;9.20;;
21624;SDS011;10974;51.034;3.744;2023-03-01T04:27:43;14.97;;;10.73;;
21624;SDS011;10974;51.034;3.744;2023-03-01T04:30:09;11.27;;;9.20;;
21624;SDS011;10974;51.034;3.744;2023-03-01T04:32:37;15.80;;;10.20;;
21624;SDS011;10974;51.034;3.744;2023-03-01T04:35:03;13.80;;;9.97;;
21624;SDS011;10974;51.034;3.744;2023-03-01T04:37:29;18.20;;;10.10;;
21624;SDS011;10974;51.034;3.744;2023-03-01T04:39:55;12.03;;;9.90;;
21624;SDS011;10974;51.034;3.744;2023-03-01T04:42:22;13.33;;;10.83;;
21624;SDS011;10974;51.034;3.744;2023-03-01T04:44:48;12.73;;;10.10;;
21624;SDS011;10974;51.034;3.744;2023-03-01T04:47:16;11.90;;;9.80;;
21624;SDS011;10974;51.034;3.744;2023-03-01T04:49:42;13.17;;;9.80;;
21624;SDS011;10974;51.034;3.744;2023-03-01T04:52:08;12.60;;;9.53;;
21624;SDS011;10974;51.034;3.744;2023-03-01T04:54:34;12.53;;;10.20;;
21624;SDS011;10974;51.034;3.744;2023-03-01T04:57:01;15.73;;;10.03;;
21624;SDS011;10974;51.034;3.744;2023-03-01T04:59:28;12.87;;;10.37;;
21624;SDS011;10974;51.034;3.744;2023-03-01T05:01:55;12.10;;;9.93;;
21624;SDS011;10974;51.034;3.744;2023-03-01T05:04:22;12.70;;;9.70;;
21624;SDS011;10974;51.034;3.744;2023-03-01T05:06:48;15.67;;;10.47;;
21624;SDS011;10974;51.034;3.744;2023-03-01T05:09:14;13.97;;;10.33;;
21624;SDS011;10974;51.034;3.744;2023-03-01T05:11:46;14.97;;;10.40;;
21624;SDS011;10974;51.034;3.744;2023-03-01T05:14:12;11.03;;;9.67;;
21624;SDS011;10974;51.034;3.744;2023-03-01T05:16:38;13.00;;;9.20;;
21624;SDS011;10974;51.034;3.744;2023-03-01T05:19:04;19.00;;;12.47;;
21624;SDS011;10974;51.034;3.744;2023-03-01T05:21:39;17.30;;;11.07;;
21624;SDS011;10974;51.034;3.744;2023-03-01T05:24:25;13.87;;;10.70;;
21624;SDS011;10974;51.034;3.744;2023-03-01T05:26:51;15.70;;;10.47;;
21624;SDS011;10974;51.034;3.744;2023-03-01T05:29:21;12.93;;;10.50;;
21624;SDS011;10974;51.034;3.744;2023-03-01T05:31:59;13.73;;;10.07;;
21624;SDS011;10974;51.034;3.744;2023-03-01T05:34:30;14.10;;;10.33;;
21624;SDS011;10974;51.034;3.744;2023-03-01T05:36:56;12.00;;;9.63;;
21624;SDS011;10974;51.034;3.744;2023-03-01T05:39:23;15.13;;;10.20;;
21624;SDS011;10974;51.034;3.744;2023-03-01T05:41:57;14.43;;;10.13;;
21624;SDS011;10974;51.034;3.744;2023-03-01T05:44:23;13.00;;;9.67;;
21624;SDS011;10974;51.034;3.744;2023-03-01T05:46:50;13.10;;;9.57;;
21624;SDS011;10974;51.034;3.744;2023-03-01T05:49:16;18.67;;;10.00;;
21624;SDS011;10974;51.034;3.744;2023-03-01T05:51:43;15.10;;;9.57;;
21624;SDS011;10974;51.034;3.744;2023-03-01T05:54:12;13.40;;;10.40;;
21624;SDS011;10974;51.034;3.744;2023-03-01T05:56:38;15.10;;;10.07;;
21624;SDS011;10974;51.034;3.744;2023-03-01T05:59:05;14.10;;;9.93;;
21624;SDS011;10974;51.034;3.744;2023-03-01T06:01:31;12.07;;;10.10;;
21624;SDS011;10974;51.034;3.744;2023-03-01T06:03:57;12.50;;;10.13;;
21624;SDS011;10974;51.034;3.744;2023-03-01T06:06:24;12.37;;;9.57;;
21624;SDS011;10974;51.034;3.744;2023-03-01T06:08:51;11.87;;;9.67;;
21624;SDS011;10974;51.034;3.744;2023-03-01T06:11:18;12.50;;;10.60;;
21624;SDS011;10974;51.034;3.744;2023-03-01T06:13:44;12.33;;;9.90;;
21624;SDS011;10974;51.034;3.744;2023-03-01T06:16:10;12.83;;;9.57;;
21624;SDS011;10974;51.034;3.744;2023-03-01T06:18:36;17.60;;;10.97;;
21624;SDS011;10974;51.034;3.744;2023-03-01T06:21:03;12.80;;;10.40;;
21624;SDS011;10974;51.034;3.744;2023-03-01T06:23:29;12.70;;;10.43;;
21624;SDS011;10974;51.034;3.744;2023-03-01T06:25:55;12.70;;;9.70;;
21624;SDS011;10974;51.034;3.744;2023-03-01T06:28:21;14.37;;;10.10;;
21624;SDS011;10974;51.034;3.744;2023-03-01T06:30:47;14.97;;;9.80;;
21624;SDS011;10974;51.034;3.744;2023-03-01T06:33:13;13.57;;;10.03;;
21624;SDS011;10974;51.034;3.744;2023-03-01T06:35:39;13.83;;;10.20;;
21624;SDS011;10974;51.034;3.744;2023-03-01T06:38:05;12.47;;;9.77;;
21624;SDS011;10974;51.034;3.744;2023-03-01T06:40:32;14.50;;;10.03;;
21624;SDS011;10974;51.034;3.744;2023-03-01T06:43:00;12.80;;;10.63;;
21624;SDS011;10974;51.034;3.744;2023-03-01T06:45:26;12.83;;;10.27;;
21624;SDS011;10974;51.034;3.744;2023-03-01T06:47:52;11.87;;;9.73;;
21624;SDS011;10974;51.034;3.744;2023-03-01T06:50:26;12.00;;;8.83;;
21624;SDS011;10974;51.034;3.744;2023-03-01T06:52:55;14.20;;;9.03;;
21624;SDS011;10974;51.034;3.744;2023-03-01T06:55:21;11.33;;;8.40;;
21624;SDS011;10974;51.034;3.744;2023-03-01T06:57:47;13.47;;;10.07;;
21624;SDS011;10974;51.034;3.744;2023-03-01T07:00:13;12.37;;;9.20;;
21624;SDS011;10974;51.034;3.744;2023-03-01T07:02:39;13.60;;;9.33;;
21624;SDS011;10974;51.034;3.744;2023-03-01T07:05:06;13.33;;;8.63;;
21624;SDS011;10974;51.034;3.744;2023-03-01T07:07:32;12.83;;;9.20;;
21624;SDS011;10974;51.034;3.744;2023-03-01T07:09:58;11.17;;;8.57;;
21624;SDS011;10974;51.034;3.744;2023-03-01T07:12:24;11.87;;;7.80;;
21624;SDS011;10974;51.034;3.744;2023-03-01T07:14:50;14.97;;;8.30;;
21624;SDS011;10974;51.034;3.744;2023-03-01T07:17:16;10.43;;;8.43;;
21624;SDS011;10974;51.034;3.744;2023-03-01T07:19:43;15.73;;;8.47;;
21624;SDS011;10974;51.034;3.744;2023-03-01T07:22:10;14.80;;;8.23;;
21624;SDS011;10974;51.034;3.744;2023-03-01T07:24:36;11.77;;;8.17;;
21624;SDS011;10974;51.034;3.744;2023-03-01T07:27:02;11.60;;;8.60;;
21624;SDS011;10974;51.034;3.744;2023-03-01T07:29:28;10.60;;;7.97;;
21624;SDS011;10974;51.034;3.744;2023-03-01T07:31:54;11.30;;;7.80;;
21624;SDS011;10974;51.034;3.744;2023-03-01T07:34:20;11.60;;;8.27;;
21624;SDS011;10974;51.034;3.744;2023-03-01T07:36:46;8.80;;;6.90;;
21624;SDS011;10974;51.034;3.744;2023-03-01T07:39:12;12.40;;;8.20;;
21624;SDS011;10974;51.034;3.744;2023-03-01T07:41:38;9.83;;;7.30;;
21624;SDS011;10974;51.034;3.744;2023-03-01T07:44:04;12.10;;;7.80;;
21624;SDS011;10974;51.034;3.744;2023-03-01T07:46:31;11.10;;;7.90;;
21624;SDS011;10974;51.034;3.744;2023-03-01T07:48:57;10.23;;;7.93;;
21624;SDS011;10974;51.034;3.744;2023-03-01T07:51:23;11.90;;;7.50;;
21624;SDS011;10974;51.034;3.744;2023-03-01T07:53:49;10.50;;;7.10;;
21624;SDS011;10974;51.034;3.744;2023-03-01T07:56:16;11.70;;;7.03;;
21624;SDS011;10974;51.034;3.744;2023-03-01T07:58:43;9.90;;;7.70;;
21624;SDS011;10974;51.034;3.744;2023-03-01T08:01:11;12.47;;;6.90;;
21624;SDS011;10974;51.034;3.744;2023-03-01T08:03:37;10.30;;;7.30;;
21624;SDS011;10974;51.034;3.744;2023-03-01T08:06:04;8.50;;;6.87;;
21624;SDS011;10974;51.034;3.744;2023-03-01T08:08:31;9.93;;;7.03;;
21624;SDS011;10974;51.034;3.744;2023-03-01T08:10:58;9.77;;;6.90;;
21624;SDS011;10974;51.034;3.744;2023-03-01T08:13:24;10.43;;;7.40;;
21624;SDS011;10974;51.034;3.744;2023-03-01T08:15:50;9.40;;;7.13;;
21624;SDS011;10974;51.034;3.744;2023-03-01T08:18:17;11.33;;;7.90;;
21624;SDS011;10974;51.034;3.744;2023-03-01T08:20:43;11.27;;;7.40;;
21624;SDS011;10974;51.034;3.744;2023-03-01T08:23:09;10.07;;;7.13;;
21624;SDS011;10974;51.034;3.744;2023-03-01T08:25:35;11.50;;;7.47;;
21624;SDS011;10974;51.034;3.744;2023-03-01T08:28:01;10.97;;;6.37;;
21624;SDS011;10974;51.034;3.744;2023-03-01T08:30:27;10.57;;;6.97;;
21624;SDS011;10974;51.034;3.744;2023-03-01T08:32:54;13.30;;;7.60;;
21624;SDS011;10974;51.034;3.744;2023-03-01T08:35:21;9.03;;;7.23;;
21624;SDS011;10974;51.034;3.744;2023-03-01T08:37:47;8.07;;;6.20;;
21624;SDS011;10974;51.034;3.744;2023-03-01T08:40:13;6.90;;;5.97;;
21624;SDS011;10974;51.034;3.744;2023-03-01T08:42:42;12.50;;;7.20;;
21624;SDS011;10974;51.034;3.744;2023-03-01T08:45:09;10.17;;;6.90;;
21624;SDS011;10974;51.034;3.744;2023-03-01T08:47:35;8.43;;;6.27;;
21624;SDS011;10974;51.034;3.744;2023-03-01T08:50:02;7.33;;;6.00;;
21624;SDS011;10974;51.034;3.744;2023-03-01T08:52:28;11.17;;;5.90;;
21624;SDS011;10974;51.034;3.744;2023-03-01T08:54:55;8.70;;;6.30;;
21624;SDS011;10974;51.034;3.744;2023-03-01T08:57:21;9.67;;;6.90;;
21624;SDS011;10974;51.034;3.744;2023-03-01T08:59:48;8.13;;;6.23;;
21624;SDS011;10974;51.034;3.744;2023-03-01T09:02:15;11.10;;;6.47;;
21624;SDS011;10974;51.034;3.744;2023-03-01T09:04:41;10.43;;;6.20;;
21624;SDS011;10974;51.034;3.744;2023-03-01T09:07:08;11.80;;;6.23;;
21624;SDS011;10974;51.034;3.744;2023-03-01T09:09:34;9.60;;;6.83;;
21624;SDS011;10974;51.034;3.744;2023-03-01T09:12:01;9.70;;;6.47;;
21624;SDS011;10974;51.034;3.744;2023-03-01T09:14:27;7.63;;;6.30;;
21624;SDS011;10974;51.034;3.744;2023-03-01T09:16:53;7.20;;;5.70;;
21624;SDS011;10974;51.034;3.744;2023-03-01T09:19:19;9.03;;;6.07;;
21624;SDS011;10974;51.034;3.744;2023-03-01T09:21:46;8.77;;;6.60;;
21624;SDS011;10974;51.034;3.744;2023-03-01T09:24:19;7.87;;;6.27;;
21624;SDS011;10974;51.034;3.744;2023-03-01T09:26:45;6.80;;;5.90;;
21624;SDS011;10974;51.034;3.744;2023-03-01T09:29:12;10.83;;;5.50;;
21624;SDS011;10974;51.034;3.744;2023-03-01T09:31:39;10.77;;;6.23;;
21624;SDS011;10974;51.034;3.744;2023-03-01T09:34:05;9.60;;;5.87;;
21624;SDS011;10974;51.034;3.744;2023-03-01T09:36:31;7.87;;;5.80;;
21624;SDS011;10974;51.034;3.744;2023-03-01T09:38:58;8.73;;;6.17;;
21624;SDS011;10974;51.034;3.744;2023-03-01T09:44:45;6.93;;;5.43;;
21624;SDS011;10974;51.034;3.744;2023-03-01T09:47:02;6.70;;;5.30;;
21624;SDS011;10974;51.034;3.744;2023-03-01T09:49:32;11.90;;;6.40;;
21624;SDS011;10974;51.034;3.744;2023-03-01T09:52:01;9.27;;;5.50;;
21624;SDS011;10974;51.034;3.744;2023-03-01T09:54:29;10.23;;;7.80;;
21624;SDS011;10974;51.034;3.744;2023-03-01T09:57:07;18.37;;;10.30;;
21624;SDS011;10974;51.034;3.744;2023-03-01T10:04:48;9.53;;;6.40;;
21624;SDS011;10974;51.034;3.744;2023-03-01T10:09:59;10.17;;;6.27;;
21624;SDS011;10974;51.034;3.744;2023-03-01T10:12:27;7.50;;;5.80;;
21624;SDS011;10974;51.034;3.744;2023-03-01T10:15:04;10.83;;;6.20;;
21624;SDS011;10974;51.034;3.744;2023-03-01T10:22:42;9.87;;;5.90;;
21624;SDS011;10974;51.034;3.744;2023-03-01T10:25:13;8.30;;;5.10;;
21624;SDS011;10974;51.034;3.744;2023-03-01T10:30:22;6.60;;;5.23;;
21624;SDS011;10974;51.034;3.744;2023-03-01T10:32:54;8.70;;;5.70;;
21624;SDS011;10974;51.034;3.744;2023-03-01T10:35:23;7.27;;;5.90;;
21624;SDS011;10974;51.034;3.744;2023-03-01T10:37:56;10.50;;;5.40;;
21624;SDS011;10974;51.034;3.744;2023-03-01T10:40:23;8.73;;;5.70;;
21624;SDS011;10974;51.034;3.744;2023-03-01T10:42:49;9.63;;;5.90;;
21624;SDS011;10974;51.034;3.744;2023-03-01T10:48:03;9.70;;;5.90;;
21624;SDS011;10974;51.034;3.744;2023-03-01T10:50:29;7.53;;;5.80;;
21624;SDS011;10974;51.034;3.744;2023-03-01T10:52:58;7.30;;;5.43;;
21624;SDS011;10974;51.034;3.744;2023-03-01T10:55:30;8.00;;;5.77;;
21624;SDS011;10974;51.034;3.744;2023-03-01T11:00:46;8.07;;;5.83;;
21624;SDS011;10974;51.034;3.744;2023-03-01T11:03:13;9.97;;;5.90;;
21624;SDS011;10974;51.034;3.744;2023-03-01T11:13:35;8.17;;;6.20;;
21624;SDS011;10974;51.034;3.744;2023-03-01T11:16:02;11.77;;;6.57;;
21624;SDS011;10974;51.034;3.744;2023-03-01T11:18:29;7.50;;;5.93;;
21624;SDS011;10974;51.034;3.744;2023-03-01T11:20:55;8.60;;;6.40;;
21624;SDS011;10974;51.034;3.744;2023-03-01T11:23:22;8.33;;;5.50;;
21624;SDS011;10974;51.034;3.744;2023-03-01T11:25:51;6.73;;;5.53;;
21624;SDS011;10974;51.034;3.744;2023-03-01T11:28:20;5.83;;;5.23;;
21624;SDS011;10974;51.034;3.744;2023-03-01T11:33:39;7.50;;;5.10;;
21624;SDS011;10974;51.034;3.744;2023-03-01T11:36:53;6.67;;;5.37;;
21624;SDS011;10974;51.034;3.744;2023-03-01T11:38:53;7.07;;;5.70;;
21624;SDS011;10974;51.034;3.744;2023-03-01T11:41:21;7.00;;;5.23;;
21624;SDS011;10974;51.034;3.744;2023-03-01T11:44:03;8.40;;;5.80;;
21624;SDS011;10974;51.034;3.744;2023-03-01T11:51:51;8.17;;;5.00;;
21624;SDS011;10974;51.034;3.744;2023-03-01T11:57:00;7.50;;;5.70;;
21624;SDS011;10974;51.034;3.744;2023-03-01T12:07:01;11.60;;;6.10;;
21624;SDS011;10974;51.034;3.744;2023-03-01T12:12:11;6.07;;;4.77;;
21624;SDS011;10974;51.034;3.744;2023-03-01T12:22:23;8.40;;;4.80;;
21624;SDS011;10974;51.034;3.744;2023-03-01T12:24:56;6.53;;;4.80;;
21624;SDS011;10974;51.034;3.744;2023-03-01T12:27:37;7.07;;;4.90;;
21624;SDS011;10974;51.034;3.744;2023-03-01T12:30:25;5.23;;;4.67;;
21624;SDS011;10974;51.034;3.744;2023-03-01T12:35:43;8.47;;;5.30;;
21624;SDS011;10974;51.034;3.744;2023-03-01T12:38:11;7.53;;;5.47;;
21624;SDS011;10974;51.034;3.744;2023-03-01T12:40:46;5.73;;;4.80;;
21624;SDS011;10974;51.034;3.744;2023-03-01T12:48:40;6.50;;;4.97;;
21624;SDS011;10974;51.034;3.744;2023-03-01T12:51:09;5.87;;;4.03;;
21624;SDS011;10974;51.034;3.744;2023-03-01T12:53:41;6.80;;;5.23;;
21624;SDS011;10974;51.034;3.744;2023-03-01T12:56:10;4.93;;;3.90;;
21624;SDS011;10974;51.034;3.744;2023-03-01T13:11:35;5.07;;;4.57;;
21624;SDS011;10974;51.034;3.744;2023-03-01T13:16:46;5.23;;;4.37;;
21624;SDS011;10974;51.034;3.744;2023-03-01T13:19:27;7.60;;;4.90;;
21624;SDS011;10974;51.034;3.744;2023-03-01T13:22:26;6.70;;;4.10;;
21624;SDS011;10974;51.034;3.744;2023-03-01T13:24:55;7.53;;;4.63;;
21624;SDS011;10974;51.034;3.744;2023-03-01T13:27:26;7.10;;;5.27;;
21624;SDS011;10974;51.034;3.744;2023-03-01T13:29:58;6.10;;;4.93;;
21624;SDS011;10974;51.034;3.744;2023-03-01T13:35:48;6.40;;;4.90;;
21624;SDS011;10974;51.034;3.744;2023-03-01T13:37:49;6.40;;;4.50;;
21624;SDS011;10974;51.034;3.744;2023-03-01T13:43:29;7.77;;;5.10;;
21624;SDS011;10974;51.034;3.744;2023-03-01T13:47:59;6.90;;;4.37;;
21624;SDS011;10974;51.034;3.744;2023-03-01T13:50:28;6.20;;;4.70;;
21624;SDS011;10974;51.034;3.744;2023-03-01T13:52:56;6.23;;;4.50;;
21624;SDS011;10974;51.034;3.744;2023-03-01T13:55:31;6.87;;;5.03;;
21624;SDS011;10974;51.034;3.744;2023-03-01T13:58:01;6.30;;;5.07;;
21624;SDS011;10974;51.034;3.744;2023-03-01T14:00:31;5.40;;;4.60;;
21624;SDS011;10974;51.034;3.744;2023-03-01T14:03:02;7.53;;;5.30;;
21624;SDS011;10974;51.034;3.744;2023-03-01T14:05:29;5.70;;;4.40;;
21624;SDS011;10974;51.034;3.744;2023-03-01T14:07:55;5.77;;;4.77;;
21624;SDS011;10974;51.034;3.744;2023-03-01T14:10:21;6.90;;;5.47;;
21624;SDS011;10974;51.034;3.744;2023-03-01T14:15:33;6.23;;;5.10;;
21624;SDS011;10974;51.034;3.744;2023-03-01T14:20:30;8.07;;;4.70;;
21624;SDS011;10974;51.034;3.744;2023-03-01T14:22:58;7.57;;;5.37;;
21624;SDS011;10974;51.034;3.744;2023-03-01T14:25:32;9.87;;;5.90;;
21624;SDS011;10974;51.034;3.744;2023-03-01T14:30:30;7.10;;;5.00;;
21624;SDS011;10974;51.034;3.744;2023-03-01T14:32:58;6.67;;;5.90;;
21624;SDS011;10974;51.034;3.744;2023-03-01T14:35:26;8.00;;;5.13;;
21624;SDS011;10974;51.034;3.744;2023-03-01T14:37:52;9.73;;;5.60;;
21624;SDS011;10974;51.034;3.744;2023-03-01T14:40:23;6.40;;;4.63;;
21624;SDS011;10974;51.034;3.744;2023-03-01T14:42:49;7.93;;;5.47;;
21624;SDS011;10974;51.034;3.744;2023-03-01T14:45:15;9.67;;;5.30;;
21624;SDS011;10974;51.034;3.744;2023-03-01T14:47:43;5.50;;;4.90;;
21624;SDS011;10974;51.034;3.744;2023-03-01T14:52:52;6.03;;;5.17;;
21624;SDS011;10974;51.034;3.744;2023-03-01T14:55:20;7.83;;;5.40;;
21624;SDS011;10974;51.034;3.744;2023-03-01T14:57:47;9.83;;;5.20;;
21624;SDS011;10974;51.034;3.744;2023-03-01T15:00:21;7.83;;;5.57;;
21624;SDS011;10974;51.034;3.744;2023-03-01T15:02:48;8.17;;;5.20;;
21624;SDS011;10974;51.034;3.744;2023-03-01T15:05:25;8.00;;;5.50;;
21624;SDS011;10974;51.034;3.744;2023-03-01T15:07:51;6.30;;;4.90;;
21624;SDS011;10974;51.034;3.744;2023-03-01T15:10:28;6.87;;;5.00;;
21624;SDS011;10974;51.034;3.744;2023-03-01T15:12:55;8.47;;;5.27;;
21624;SDS011;10974;51.034;3.744;2023-03-01T15:15:34;6.17;;;5.00;;
21624;SDS011;10974;51.034;3.744;2023-03-01T15:18:15;6.37;;;5.27;;
21624;SDS011;10974;51.034;3.744;2023-03-01T15:20:42;8.23;;;5.70;;
21624;SDS011;10974;51.034;3.744;2023-03-01T15:23:41;6.70;;;5.40;;
21624;SDS011;10974;51.034;3.744;2023-03-01T15:26:01;7.53;;;5.17;;
21624;SDS011;10974;51.034;3.744;2023-03-01T15:28:32;7.60;;;5.50;;
21624;SDS011;10974;51.034;3.744;2023-03-01T15:31:03;6.03;;;4.90;;
21624;SDS011;10974;51.034;3.744;2023-03-01T15:33:31;5.97;;;5.07;;
21624;SDS011;10974;51.034;3.744;2023-03-01T15:35:59;6.37;;;5.40;;
21624;SDS011;10974;51.034;3.744;2023-03-01T15:40:52;5.93;;;5.30;;
21624;SDS011;10974;51.034;3.744;2023-03-01T15:43:37;9.37;;;5.60;;
21624;SDS011;10974;51.034;3.744;2023-03-01T15:46:04;9.33;;;5.57;;
21624;SDS011;10974;51.034;3.744;2023-03-01T15:48:30;9.30;;;5.90;;
21624;SDS011;10974;51.034;3.744;2023-03-01T15:50:57;7.43;;;5.63;;
21624;SDS011;10974;51.034;3.744;2023-03-01T15:53:23;11.50;;;5.23;;
21624;SDS011;10974;51.034;3.744;2023-03-01T15:55:50;8.97;;;5.40;;
21624;SDS011;10974;51.034;3.744;2023-03-01T15:58:17;7.37;;;5.57;;
21624;SDS011;10974;51.034;3.744;2023-03-01T16:00:44;7.93;;;5.53;;
21624;SDS011;10974;51.034;3.744;2023-03-01T16:03:12;8.63;;;6.00;;
21624;SDS011;10974;51.034;3.744;2023-03-01T16:05:38;7.63;;;5.63;;
21624;SDS011;10974;51.034;3.744;2023-03-01T16:08:04;7.40;;;5.00;;
21624;SDS011;10974;51.034;3.744;2023-03-01T16:10:31;9.77;;;5.37;;
21624;SDS011;10974;51.034;3.744;2023-03-01T16:12:57;6.67;;;5.97;;
21624;SDS011;10974;51.034;3.744;2023-03-01T16:15:28;9.20;;;6.00;;
21624;SDS011;10974;51.034;3.744;2023-03-01T16:17:54;5.73;;;5.13;;
21624;SDS011;10974;51.034;3.744;2023-03-01T16:20:23;8.47;;;5.80;;
21624;SDS011;10974;51.034;3.744;2023-03-01T16:22:49;6.30;;;5.70;;
21624;SDS011;10974;51.034;3.744;2023-03-01T16:25:16;9.30;;;6.40;;
21624;SDS011;10974;51.034;3.744;2023-03-01T16:27:43;7.47;;;6.13;;
21624;SDS011;10974;51.034;3.744;2023-03-01T16:30:10;5.27;;;4.77;;
21624;SDS011;10974;51.034;3.744;2023-03-01T16:32:42;7.23;;;5.97;;
21624;SDS011;10974;51.034;3.744;2023-03-01T16:35:09;6.70;;;6.10;;
21624;SDS011;10974;51.034;3.744;2023-03-01T16:37:36;9.67;;;6.87;;
21624;SDS011;10974;51.034;3.744;2023-03-01T16:40:04;6.67;;;6.07;;
21624;SDS011;10974;51.034;3.744;2023-03-01T16:42:34;8.73;;;6.00;;
21624;SDS011;10974;51.034;3.744;2023-03-01T16:45:00;6.63;;;5.93;;
21624;SDS011;10974;51.034;3.744;2023-03-01T16:47:27;8.37;;;6.77;;
21624;SDS011;10974;51.034;3.744;2023-03-01T16:49:53;7.63;;;6.70;;
21624;SDS011;10974;51.034;3.744;2023-03-01T16:52:20;8.07;;;6.37;;
21624;SDS011;10974;51.034;3.744;2023-03-01T16:54:47;9.00;;;6.23;;
21624;SDS011;10974;51.034;3.744;2023-03-01T16:57:13;8.27;;;5.97;;
21624;SDS011;10974;51.034;3.744;2023-03-01T16:59:39;7.47;;;6.40;;
21624;SDS011;10974;51.034;3.744;2023-03-01T17:02:05;11.20;;;7.33;;
21624;SDS011;10974;51.034;3.744;2023-03-01T17:04:33;9.17;;;6.23;;
21624;SDS011;10974;51.034;3.744;2023-03-01T17:06:59;9.73;;;6.00;;
21624;SDS011;10974;51.034;3.744;2023-03-01T17:09:25;12.27;;;7.13;;
21624;SDS011;10974;51.034;3.744;2023-03-01T17:11:51;11.90;;;5.80;;
21624;SDS011;10974;51.034;3.744;2023-03-01T17:14:17;10.40;;;7.17;;
21624;SDS011;10974;51.034;3.744;2023-03-01T17:16:43;12.70;;;7.57;;
21624;SDS011;10974;51.034;3.744;2023-03-01T17:19:10;12.03;;;6.70;;
21624;SDS011;10974;51.034;3.744;2023-03-01T17:21:36;8.13;;;6.27;;
21624;SDS011;10974;51.034;3.744;2023-03-01T17:24:02;7.90;;;6.80;;
21624;SDS011;10974;51.034;3.744;2023-03-01T17:26:28;11.10;;;6.97;;
21624;SDS011;10974;51.034;3.744;2023-03-01T17:28:55;8.40;;;6.83;;
21624;SDS011;10974;51.034;3.744;2023-03-01T17:31:23;11.40;;;8.10;;
21624;SDS011;10974;51.034;3.744;2023-03-01T17:33:49;8.93;;;7.33;;
21624;SDS011;10974;51.034;3.744;2023-03-01T17:36:16;10.50;;;6.87;;
21624;SDS011;10974;51.034;3.744;2023-03-01T17:38:42;8.93;;;6.73;;
21624;SDS011;10974;51.034;3.744;2023-03-01T17:41:08;8.27;;;6.23;;
21624;SDS011;10974;51.034;3.744;2023-03-01T17:43:36;9.20;;;6.47;;
21624;SDS011;10974;51.034;3.744;2023-03-01T17:46:02;9.90;;;6.80;;
21624;SDS011;10974;51.034;3.744;2023-03-01T17:48:28;9.67;;;6.57;;
21624;SDS011;10974;51.034;3.744;2023-03-01T17:50:54;9.53;;;6.80;;
21624;SDS011;10974;51.034;3.744;2023-03-01T17:53:21;10.80;;;7.07;;
21624;SDS011;10974;51.034;3.744;2023-03-01T17:55:47;9.50;;;7.40;;
21624;SDS011;10974;51.034;3.744;2023-03-01T17:58:18;9.47;;;7.13;;
21624;SDS011;10974;51.034;3.744;2023-03-01T18:00:47;9.97;;;6.60;;
21624;SDS011;10974;51.034;3.744;2023-03-01T18:03:13;10.00;;;6.47;;
21624;SDS011;10974;51.034;3.744;2023-03-01T18:05:39;12.33;;;7.50;;
21624;SDS011;10974;51.034;3.744;2023-03-01T18:08:06;7.80;;;6.37;;
21624;SDS011;10974;51.034;3.744;2023-03-01T18:10:32;9.93;;;7.20;;
21624;SDS011;10974;51.034;3.744;2023-03-01T18:13:00;9.23;;;6.70;;
21624;SDS011;10974;51.034;3.744;2023-03-01T18:15:26;8.50;;;6.30;;
21624;SDS011;10974;51.034;3.744;2023-03-01T18:17:53;10.40;;;6.40;;
21624;SDS011;10974;51.034;3.744;2023-03-01T18:20:19;12.23;;;7.13;;
21624;SDS011;10974;51.034;3.744;2023-03-01T18:22:45;10.40;;;6.90;;
21624;SDS011;10974;51.034;3.744;2023-03-01T18:25:12;12.90;;;6.77;;
21624;SDS011;10974;51.034;3.744;2023-03-01T18:27:39;12.63;;;7.27;;
21624;SDS011;10974;51.034;3.744;2023-03-01T18:30:05;10.27;;;7.10;;
21624;SDS011;10974;51.034;3.744;2023-03-01T18:32:32;9.80;;;7.60;;
21624;SDS011;10974;51.034;3.744;2023-03-01T18:34:58;10.00;;;7.37;;
21624;SDS011;10974;51.034;3.744;2023-03-01T18:37:24;11.80;;;8.10;;
21624;SDS011;10974;51.034;3.744;2023-03-01T18:39:51;12.07;;;7.67;;
21624;SDS011;10974;51.034;3.744;2023-03-01T18:42:17;10.87;;;7.33;;
21624;SDS011;10974;51.034;3.744;2023-03-01T18:44:46;8.77;;;7.10;;
21624;SDS011;10974;51.034;3.744;2023-03-01T18:47:13;12.10;;;7.13;;
21624;SDS011;10974;51.034;3.744;2023-03-01T18:49:39;11.67;;;7.67;;
21624;SDS011;10974;51.034;3.744;2023-03-01T18:52:05;10.20;;;7.83;;
21624;SDS011;10974;51.034;3.744;2023-03-01T18:54:31;11.60;;;8.60;;
21624;SDS011;10974;51.034;3.744;2023-03-01T18:56:59;8.93;;;7.00;;
21624;SDS011;10974;51.034;3.744;2023-03-01T18:59:25;13.43;;;8.23;;
21624;SDS011;10974;51.034;3.744;2023-03-01T19:01:51;13.73;;;8.03;;
21624;SDS011;10974;51.034;3.744;2023-03-01T19:04:17;8.93;;;7.57;;
21624;SDS011;10974;51.034;3.744;2023-03-01T19:06:43;10.83;;;7.97;;
21624;SDS011;10974;51.034;3.744;2023-03-01T19:09:09;9.07;;;7.63;;
21624;SDS011;10974;51.034;3.744;2023-03-01T19:11:35;14.90;;;8.67;;
21624;SDS011;10974;51.034;3.744;2023-03-01T19:14:02;13.10;;;8.70;;
21624;SDS011;10974;51.034;3.744;2023-03-01T19:16:29;12.27;;;8.30;;
21624;SDS011;10974;51.034;3.744;2023-03-01T19:18:56;11.77;;;8.03;;
21624;SDS011;10974;51.034;3.744;2023-03-01T19:21:23;11.17;;;8.60;;
21624;SDS011;10974;51.034;3.744;2023-03-01T19:23:50;13.17;;;8.10;;
21624;SDS011;10974;51.034;3.744;2023-03-01T19:26:17;10.57;;;8.20;;
21624;SDS011;10974;51.034;3.744;2023-03-01T19:28:44;11.17;;;7.70;;
21624;SDS011;10974;51.034;3.744;2023-03-01T19:31:11;11.63;;;7.83;;
21624;SDS011;10974;51.034;3.744;2023-03-01T19:33:38;12.63;;;8.90;;
21624;SDS011;10974;51.034;3.744;2023-03-01T19:36:04;11.30;;;7.53;;
21624;SDS011;10974;51.034;3.744;2023-03-01T19:38:32;11.13;;;8.27;;
21624;SDS011;10974;51.034;3.744;2023-03-01T19:41:02;11.90;;;8.47;;
21624;SDS011;10974;51.034;3.744;2023-03-01T19:43:28;11.20;;;8.40;;
21624;SDS011;10974;51.034;3.744;2023-03-01T19:45:54;13.80;;;9.50;;
21624;SDS011;10974;51.034;3.744;2023-03-01T19:48:21;13.13;;;9.70;;
21624;SDS011;10974;51.034;3.744;2023-03-01T19:50:47;13.60;;;9.23;;
21624;SDS011;10974;51.034;3.744;2023-03-01T19:53:14;13.47;;;8.90;;
21624;SDS011;10974;51.034;3.744;2023-03-01T19:55:40;10.70;;;8.60;;
21624;SDS011;10974;51.034;3.744;2023-03-01T19:58:07;12.20;;;8.27;;
21624;SDS011;10974;51.034;3.744;2023-03-01T20:00:34;11.67;;;8.80;;
21624;SDS011;10974;51.034;3.744;2023-03-01T20:03:01;13.73;;;8.63;;
21624;SDS011;10974;51.034;3.744;2023-03-01T20:05:27;12.20;;;9.10;;
21624;SDS011;10974;51.034;3.744;2023-03-01T20:07:53;10.40;;;8.80;;
21624;SDS011;10974;51.034;3.744;2023-03-01T20:10:27;13.10;;;9.70;;
21624;SDS011;10974;51.034;3.744;2023-03-01T20:12:53;12.77;;;8.67;;
21624;SDS011;10974;51.034;3.744;2023-03-01T20:15:19;13.10;;;8.60;;
21624;SDS011;10974;51.034;3.744;2023-03-01T20:17:46;12.87;;;8.43;;
21624;SDS011;10974;51.034;3.744;2023-03-01T20:20:13;13.47;;;9.33;;
21624;SDS011;10974;51.034;3.744;2023-03-01T20:22:39;11.20;;;8.77;;
21624;SDS011;10974;51.034;3.744;2023-03-01T20:25:05;12.77;;;8.87;;
21624;SDS011;10974;51.034;3.744;2023-03-01T20:27:31;17.30;;;9.33;;
21624;SDS011;10974;51.034;3.744;2023-03-01T20:29:57;14.60;;;10.23;;
21624;SDS011;10974;51.034;3.744;2023-03-01T20:32:24;11.33;;;8.87;;
21624;SDS011;10974;51.034;3.744;2023-03-01T20:34:50;16.60;;;10.27;;
21624;SDS011;10974;51.034;3.744;2023-03-01T20:37:18;16.90;;;10.07;;
21624;SDS011;10974;51.034;3.744;2023-03-01T20:39:46;17.53;;;10.60;;
21624;SDS011;10974;51.034;3.744;2023-03-01T20:42:12;12.90;;;9.97;;
21624;SDS011;10974;51.034;3.744;2023-03-01T20:44:38;14.27;;;10.30;;